Myrtle, Minnesota
Current Conditions -  °F | °C
As of 10:34 AM on Friday 24 Oct 2014 (Local Time) from KAEL Reporting Station
Haze Haze  
Wind Chill: 54°   Ceiling: 400
Heat Index: 54°   Visibility: 3mi
Dew Point: 54°   Wind: 9mph
Humidity: 100%   Direction: 180°S
Pressure: 29.91"   Gusts: NA
Location:  43.5439°N, 93.1707°W
Report Text: KAEL 241534Z AUTO 18008KT 3SM BR OVC004 12/12 A2991 RMK AO2
Loading
Personal Weather Stations






























Interactive Weather Map
Tropical Storm Tracking
New forecast layout! Learn more

10-Day Weather Forecast

Advertisements
Track Severe Weather on mobile